Time;durP1;ratioP1;P1;durP2;ratioP2;P2;SDS_P1;SDS_P2;PMS_P1;PMS_P2;Temp;Humidity;BMP_temperature;BMP_pressure;BME280_temperature;BME280_humidity;BME280_pressure;Samples;Min_cycle;Max_cycle;Signal;HPM_P1;HPM_P2
2023/05/13 00:02:07;;;;;;;16.60;13.48;;;12.50;99.90;;;;;;5013630;28;20049;-73
2023/05/13 00:04:33;;;;;;;16.00;12.30;;;12.40;99.90;;;;;;5014519;28;20053;-73
2023/05/13 00:06:58;;;;;;;16.05;12.55;;;12.40;99.90;;;;;;5023281;28;20045;-74
2023/05/13 00:09:24;;;;;;;18.95;12.82;;;12.40;99.90;;;;;;5011924;28;20056;-75
2023/05/13 00:11:50;;;;;;;15.48;12.13;;;12.40;99.90;;;;;;5020968;28;21165;-73
2023/05/13 00:14:16;;;;;;;19.58;13.32;;;12.40;99.90;;;;;;5010477;28;20049;-75
2023/05/13 00:16:42;;;;;;;16.42;13.18;;;12.30;99.90;;;;;;5004495;28;20068;-74
2023/05/13 00:19:07;;;;;;;15.52;13.45;;;12.30;99.90;;;;;;5023784;28;20128;-74
2023/05/13 00:21:33;;;;;;;17.35;13.43;;;12.30;99.90;;;;;;5024052;28;20053;-76
2023/05/13 00:23:59;;;;;;;15.80;13.52;;;12.30;99.90;;;;;;5020132;28;20041;-75
2023/05/13 00:26:25;;;;;;;19.83;13.38;;;12.30;99.90;;;;;;5023713;28;20042;-74
2023/05/13 00:28:51;;;;;;;18.33;14.55;;;12.30;99.90;;;;;;5024921;28;20096;-74
2023/05/13 00:31:17;;;;;;;16.80;14.13;;;12.30;99.90;;;;;;5024881;28;20078;-74
2023/05/13 00:33:43;;;;;;;20.60;13.98;;;12.30;99.90;;;;;;5021799;28;20056;-74
2023/05/13 00:36:11;;;;;;;20.00;14.18;;;12.30;99.90;;;;;;5031996;28;20060;-76
2023/05/13 00:38:37;;;;;;;17.95;12.85;;;12.30;99.90;;;;;;5025175;28;20045;-77
2023/05/13 00:41:03;;;;;;;15.90;12.30;;;12.30;99.90;;;;;;5022996;28;20516;-76
2023/05/13 00:43:29;;;;;;;16.60;12.00;;;12.30;99.90;;;;;;5033761;28;20041;-73
2023/05/13 00:45:59;;;;;;;16.27;11.85;;;12.20;99.90;;;;;;5022111;28;20514;-74
2023/05/13 00:48:25;;;;;;;14.80;11.35;;;12.30;99.90;;;;;;5027564;28;20046;-75
2023/05/13 00:50:51;;;;;;;13.43;11.05;;;12.30;99.90;;;;;;5026142;28;20049;-76
2023/05/13 00:53:17;;;;;;;15.82;11.65;;;12.30;99.90;;;;;;5026062;28;20053;-74
2023/05/13 00:55:44;;;;;;;14.00;10.77;;;12.30;99.90;;;;;;5014597;28;20053;-77
2023/05/13 00:58:10;;;;;;;13.48;10.88;;;12.30;99.90;;;;;;5028628;28;20111;-76
2023/05/13 01:00:54;;;;;;;11.90;10.50;;;12.30;99.90;;;;;;5012325;28;20061;-75
2023/05/13 01:03:28;;;;;;;13.27;10.73;;;12.30;99.90;;;;;;5027035;28;20140;-76
2023/05/13 01:06:04;;;;;;;13.82;10.82;;;12.30;99.90;;;;;;5007035;28;20036;-75
2023/05/13 01:08:51;;;;;;;13.00;10.75;;;12.30;99.90;;;;;;5035145;28;20060;-74
2023/05/13 01:11:23;;;;;;;13.00;10.43;;;12.20;99.90;;;;;;5032053;28;20055;-78
2023/05/13 01:13:59;;;;;;;15.45;10.82;;;12.30;99.90;;;;;;5035335;28;20052;-73
2023/05/13 01:16:33;;;;;;;13.93;10.15;;;12.20;99.90;;;;;;5027751;28;20472;-75
2023/05/13 01:19:05;;;;;;;11.90;9.90;;;12.30;99.90;;;;;;5026170;28;20343;-74
2023/05/13 01:21:35;;;;;;;15.95;10.18;;;12.30;99.90;;;;;;5018515;28;20313;-73
2023/05/13 01:24:01;;;;;;;15.13;10.27;;;12.20;99.90;;;;;;4999668;28;20076;-75
2023/05/13 01:26:28;;;;;;;11.88;9.70;;;12.30;99.90;;;;;;5025479;28;20496;-74
2023/05/13 01:28:54;;;;;;;13.15;10.60;;;12.30;99.90;;;;;;5013567;28;20040;-74
2023/05/13 01:31:21;;;;;;;15.82;10.20;;;12.20;99.90;;;;;;5018188;28;20051;-77
2023/05/13 01:33:48;;;;;;;12.40;9.45;;;12.20;99.90;;;;;;5015755;28;20381;-74
2023/05/13 01:36:14;;;;;;;15.13;10.05;;;12.30;99.90;;;;;;5026535;28;20123;-74
2023/05/13 01:38:40;;;;;;;14.50;9.85;;;12.30;99.90;;;;;;5027004;28;20056;-76
2023/05/13 01:41:06;;;;;;;14.10;10.13;;;12.30;99.90;;;;;;5033912;28;20041;-76
2023/05/13 01:43:32;;;;;;;13.50;9.48;;;12.30;99.90;;;;;;5018321;28;20430;-74
2023/05/13 01:45:59;;;;;;;13.98;10.60;;;12.30;99.90;;;;;;4996928;28;20049;-74
2023/05/13 01:48:25;;;;;;;15.00;11.00;;;12.30;99.90;;;;;;5026348;28;20079;-75
2023/05/13 01:50:51;;;;;;;15.52;11.55;;;12.30;99.90;;;;;;4994293;28;20549;-75
2023/05/13 01:53:18;;;;;;;19.30;13.20;;;12.30;99.90;;;;;;5022702;28;20053;-75
2023/05/13 01:55:43;;;;;;;16.38;12.43;;;12.30;99.90;;;;;;5012631;28;20179;-74
2023/05/13 01:58:09;;;;;;;15.98;13.13;;;12.30;99.90;;;;;;5026110;28;20044;-75
2023/05/13 02:00:35;;;;;;;18.33;13.57;;;12.30;99.90;;;;;;5024864;28;20859;-75
2023/05/13 02:03:00;;;;;;;18.27;13.68;;;12.40;99.90;;;;;;5024005;28;20391;-77
2023/05/13 02:05:31;;;;;;;16.52;12.40;;;12.30;99.90;;;;;;5027182;28;20045;-75
2023/05/13 02:07:57;;;;;;;15.70;12.23;;;12.40;99.90;;;;;;5013259;28;20052;-75
2023/05/13 02:10:23;;;;;;;18.92;12.90;;;12.40;99.90;;;;;;5025012;28;20083;-76
2023/05/13 02:12:50;;;;;;;15.65;12.02;;;12.40;99.90;;;;;;5046568;28;20206;-76
2023/05/13 02:15:16;;;;;;;14.73;12.05;;;12.40;99.90;;;;;;5007939;28;20048;-74
2023/05/13 02:17:42;;;;;;;16.10;12.02;;;12.40;99.90;;;;;;5014381;28;20061;-73
2023/05/13 02:20:08;;;;;;;18.52;13.13;;;12.40;99.90;;;;;;5022293;28;20045;-75
2023/05/13 02:22:34;;;;;;;16.95;13.35;;;12.40;99.90;;;;;;5014730;28;20072;-76
2023/05/13 02:25:00;;;;;;;16.48;13.95;;;12.30;99.90;;;;;;5011512;28;20128;-74
2023/05/13 02:27:25;;;;;;;19.65;14.48;;;12.30;99.90;;;;;;5011109;28;20131;-74
2023/05/13 02:29:51;;;;;;;15.55;13.07;;;12.40;99.90;;;;;;5021116;28;20056;-75
2023/05/13 02:32:17;;;;;;;17.83;13.40;;;12.40;99.90;;;;;;5010596;28;20048;-75
2023/05/13 02:34:42;;;;;;;19.45;13.23;;;12.40;99.90;;;;;;5013117;28;20073;-74
2023/05/13 02:37:08;;;;;;;19.30;13.40;;;12.30;99.90;;;;;;5020428;28;20088;-74
2023/05/13 02:39:34;;;;;;;19.13;14.02;;;12.30;99.90;;;;;;5021006;28;20056;-75
2023/05/13 02:42:01;;;;;;;17.50;12.93;;;12.40;99.90;;;;;;4994651;28;20956;-74
2023/05/13 02:44:27;;;;;;;15.07;12.73;;;12.30;99.90;;;;;;5013386;28;20049;-73
2023/05/13 02:46:53;;;;;;;15.73;12.50;;;12.30;99.90;;;;;;5024403;28;20076;-75
2023/05/13 02:49:19;;;;;;;18.65;12.80;;;12.30;99.90;;;;;;5013548;28;20041;-76
2023/05/13 02:51:45;;;;;;;17.08;13.07;;;12.30;99.90;;;;;;5022315;28;20132;-73
2023/05/13 02:54:12;;;;;;;18.20;13.13;;;12.30;99.90;;;;;;5024473;28;20052;-76
2023/05/13 02:56:38;;;;;;;18.75;13.55;;;12.30;99.90;;;;;;5020718;28;20041;-73
2023/05/13 02:59:03;;;;;;;20.67;13.15;;;12.30;99.90;;;;;;5021136;28;20103;-73
2023/05/13 03:01:29;;;;;;;19.20;14.43;;;12.30;99.90;;;;;;5009202;28;20478;-76
2023/05/13 03:03:55;;;;;;;20.75;15.05;;;12.30;99.90;;;;;;5014398;28;20958;-75
2023/05/13 03:06:21;;;;;;;18.30;14.85;;;12.30;99.90;;;;;;5015007;28;20708;-75
2023/05/13 03:08:46;;;;;;;21.40;16.25;;;12.30;99.90;;;;;;5019321;28;20057;-76
2023/05/13 03:11:12;;;;;;;22.75;17.02;;;12.30;99.90;;;;;;5028149;28;20077;-74
2023/05/13 03:13:38;;;;;;;23.05;16.52;;;12.30;99.90;;;;;;5025154;28;20041;-76
2023/05/13 03:16:04;;;;;;;21.10;17.27;;;12.30;99.90;;;;;;5023671;28;20044;-75
2023/05/13 03:18:31;;;;;;;22.90;17.20;;;12.30;99.90;;;;;;5014746;28;20064;-75
2023/05/13 03:20:57;;;;;;;20.40;16.75;;;12.30;99.90;;;;;;5012592;28;20420;-75
2023/05/13 03:23:23;;;;;;;22.17;17.30;;;12.20;99.90;;;;;;5012115;28;20053;-75
2023/05/13 03:25:54;;;;;;;25.58;16.90;;;12.20;99.90;;;;;;5024137;28;20064;-76
2023/05/13 03:28:20;;;;;;;24.17;16.55;;;12.20;99.90;;;;;;5026623;28;20488;-74
2023/05/13 03:30:45;;;;;;;20.95;16.92;;;12.20;99.90;;;;;;5026125;28;20491;-75
2023/05/13 03:33:11;;;;;;;19.58;16.10;;;12.20;99.90;;;;;;5011771;28;20444;-75
2023/05/13 03:35:37;;;;;;;23.88;16.45;;;12.20;99.90;;;;;;5016505;28;20048;-75
2023/05/13 03:38:03;;;;;;;27.45;16.60;;;12.20;99.90;;;;;;5025673;28;20052;-73
2023/05/13 03:40:29;;;;;;;21.05;15.82;;;12.20;99.90;;;;;;5020428;28;20447;-75
2023/05/13 03:42:55;;;;;;;21.35;16.35;;;11.00;99.90;;;;;;5014912;28;20041;-74
2023/05/13 03:45:20;;;;;;;21.25;15.80;;;12.20;99.90;;;;;;5005016;28;20791;-74
2023/05/13 03:47:46;;;;;;;21.85;14.52;;;12.20;99.90;;;;;;5024358;28;20455;-74
2023/05/13 03:50:12;;;;;;;17.80;14.80;;;12.20;99.90;;;;;;5026913;28;20374;-75
2023/05/13 03:52:37;;;;;;;19.35;14.27;;;12.20;99.90;;;;;;5025994;28;20044;-74
2023/05/13 03:55:05;;;;;;;21.55;14.27;;;12.20;99.90;;;;;;5021312;28;20128;-74
2023/05/13 03:57:30;;;;;;;19.35;14.07;;;12.20;99.90;;;;;;5020421;28;20045;-73
2023/05/13 03:59:56;;;;;;;21.13;13.73;;;12.20;99.90;;;;;;5020814;28;20060;-76
2023/05/13 04:02:22;;;;;;;19.83;13.98;;;12.10;99.90;;;;;;5028916;28;20053;-75
2023/05/13 04:04:48;;;;;;;18.08;13.88;;;12.10;99.90;;;;;;5027650;28;20056;-74
2023/05/13 04:07:15;;;;;;;17.80;13.07;;;12.10;99.90;;;;;;5013410;28;20046;-75
2023/05/13 04:09:41;;;;;;;16.08;12.65;;;12.10;99.90;;;;;;5023477;28;20400;-74
2023/05/13 04:12:07;;;;;;;15.40;12.85;;;12.10;99.90;;;;;;5032174;28;20044;-76
2023/05/13 04:14:32;;;;;;;15.65;13.25;;;12.10;99.90;;;;;;5016937;28;20050;-74
2023/05/13 04:16:58;;;;;;;14.60;11.43;;;12.10;99.90;;;;;;5016215;28;20550;-74
2023/05/13 04:19:24;;;;;;;17.27;13.05;;;12.00;99.90;;;;;;5025200;28;20041;-75
2023/05/13 04:21:49;;;;;;;16.05;12.00;;;12.00;99.90;;;;;;5030834;28;20049;-75
2023/05/13 04:24:15;;;;;;;17.25;13.23;;;12.10;99.90;;;;;;5027119;28;20053;-76
2023/05/13 04:26:41;;;;;;;14.45;12.05;;;12.00;99.90;;;;;;5000194;28;20140;-75
2023/05/13 04:29:07;;;;;;;16.23;11.50;;;12.00;99.90;;;;;;5029926;28;20373;-77
2023/05/13 04:31:32;;;;;;;14.93;11.07;;;12.00;99.90;;;;;;5035329;28;20110;-76
2023/05/13 04:33:58;;;;;;;14.35;11.75;;;12.00;99.90;;;;;;5030780;28;20061;-73
2023/05/13 04:36:24;;;;;;;17.48;11.68;;;12.00;99.90;;;;;;5016158;28;20407;-73
2023/05/13 04:38:49;;;;;;;17.98;11.07;;;12.00;99.90;;;;;;5016208;28;20056;-76
2023/05/13 04:41:15;;;;;;;11.77;9.88;;;12.00;99.90;;;;;;5016814;28;20269;-76
2023/05/13 04:43:41;;;;;;;13.73;10.60;;;12.00;99.90;;;;;;5024706;28;20053;-75
2023/05/13 04:46:07;;;;;;;12.77;9.90;;;12.10;99.90;;;;;;5026101;28;20618;-77
2023/05/13 04:48:32;;;;;;;14.07;9.95;;;12.10;99.90;;;;;;5028513;28;20051;-74
2023/05/13 04:50:58;;;;;;;14.10;9.93;;;12.10;99.90;;;;;;5014997;28;20392;-76
2023/05/13 04:53:24;;;;;;;11.80;9.63;;;12.10;99.90;;;;;;5014948;28;20076;-75
2023/05/13 04:55:51;;;;;;;12.60;9.25;;;12.10;99.90;;;;;;5030425;28;20183;-74
2023/05/13 04:58:23;;;;;;;13.25;9.23;;;12.10;99.90;;;;;;5013371;28;20074;-76
2023/05/13 05:00:53;;;;;;;11.55;9.50;;;12.20;99.90;;;;;;5039347;28;20060;-76
2023/05/13 05:03:19;;;;;;;12.35;9.63;;;12.20;99.90;;;;;;5023049;28;20052;-74
2023/05/13 05:05:45;;;;;;;13.77;9.20;;;12.20;99.90;;;;;;5025009;28;20056;-74
2023/05/13 05:08:11;;;;;;;12.55;9.13;;;12.30;99.90;;;;;;5024547;28;20057;-76
2023/05/13 05:10:37;;;;;;;13.55;8.52;;;12.30;99.90;;;;;;5041850;28;20055;-76
2023/05/13 05:13:02;;;;;;;12.77;9.27;;;12.30;99.90;;;;;;5036062;28;20920;-75
2023/05/13 05:15:28;;;;;;;14.68;9.32;;;12.30;99.90;;;;;;5021005;28;20131;-75
2023/05/13 05:17:54;;;;;;;10.82;8.50;;;12.40;99.90;;;;;;5011774;28;20502;-73
2023/05/13 05:20:20;;;;;;;12.15;8.88;;;12.40;99.90;;;;;;5022670;28;20393;-73
2023/05/13 05:22:48;;;;;;;12.63;8.48;;;12.40;99.90;;;;;;5024787;28;20719;-76
2023/05/13 05:25:19;;;;;;;14.25;8.70;;;12.50;99.90;;;;;;5033493;28;20175;-74
2023/05/13 05:27:45;;;;;;;11.02;8.40;;;12.50;99.90;;;;;;5032410;28;20457;-74
2023/05/13 05:30:12;;;;;;;15.20;8.88;;;12.50;99.90;;;;;;5029055;28;20106;-76
2023/05/13 05:32:37;;;;;;;13.80;9.18;;;12.60;99.90;;;;;;5033125;28;20053;-74
2023/05/13 05:35:04;;;;;;;14.05;9.98;;;12.60;99.90;;;;;;5032290;28;20052;-75
2023/05/13 05:37:29;;;;;;;15.15;9.98;;;12.70;99.90;;;;;;5032936;28;20045;-73
2023/05/13 05:39:55;;;;;;;13.15;9.52;;;12.70;99.90;;;;;;5027465;28;20067;-74
2023/05/13 05:42:21;;;;;;;20.45;10.52;;;12.70;99.90;;;;;;5020109;28;20143;-74
2023/05/13 05:44:47;;;;;;;14.27;9.82;;;12.80;99.90;;;;;;5024939;28;20099;-75
2023/05/13 05:47:12;;;;;;;12.95;9.48;;;12.90;99.90;;;;;;5021050;28;20435;-74
2023/05/13 05:49:38;;;;;;;11.70;9.25;;;12.90;99.90;;;;;;5022801;28;20545;-75
2023/05/13 05:52:05;;;;;;;16.40;10.25;;;13.00;99.90;;;;;;5021747;28;20043;-74
2023/05/13 05:54:31;;;;;;;12.60;10.20;;;13.10;99.90;;;;;;5015679;28;20065;-76
2023/05/13 05:56:57;;;;;;;10.88;8.45;;;13.20;99.90;;;;;;5027992;28;20144;-76
2023/05/13 05:59:22;;;;;;;13.00;9.05;;;13.20;99.90;;;;;;5030518;28;20048;-74
2023/05/13 06:01:48;;;;;;;14.55;9.32;;;13.30;99.90;;;;;;5028419;28;20056;-73
2023/05/13 06:04:14;;;;;;;14.13;9.60;;;13.40;99.90;;;;;;5013320;28;20098;-74
2023/05/13 06:06:40;;;;;;;12.05;8.85;;;13.50;99.90;;;;;;5025339;28;20088;-74
2023/05/13 06:09:06;;;;;;;14.48;9.20;;;13.60;99.90;;;;;;5025502;28;20145;-75
2023/05/13 06:11:32;;;;;;;12.52;8.77;;;13.60;99.90;;;;;;5018905;28;20041;-76
2023/05/13 06:13:58;;;;;;;11.30;9.00;;;13.80;99.90;;;;;;5014201;28;20460;-74
2023/05/13 06:16:24;;;;;;;12.98;8.88;;;13.80;99.90;;;;;;5012370;28;20689;-74
2023/05/13 06:18:51;;;;;;;9.95;8.73;;;14.00;99.90;;;;;;5023020;28;20048;-74
2023/05/13 06:21:17;;;;;;;9.80;8.75;;;14.10;99.90;;;;;;5012607;28;20053;-76
2023/05/13 06:23:42;;;;;;;14.75;8.73;;;14.20;99.90;;;;;;5008394;28;20515;-74
2023/05/13 06:26:08;;;;;;;10.82;8.27;;;14.30;99.90;;;;;;5023317;28;20491;-75
2023/05/13 06:28:35;;;;;;;9.50;7.95;;;14.40;99.90;;;;;;5027317;28;20052;-76
2023/05/13 06:31:01;;;;;;;11.52;7.95;;;14.50;99.90;;;;;;5028010;28;20049;-74
2023/05/13 06:33:26;;;;;;;12.05;7.70;;;14.70;99.90;;;;;;5021327;28;20487;-77
2023/05/13 06:35:52;;;;;;;13.30;8.98;;;14.80;99.90;;;;;;5015070;28;20107;-74
2023/05/13 06:38:18;;;;;;;9.77;8.38;;;14.90;99.90;;;;;;5037811;28;20043;-75
2023/05/13 06:40:44;;;;;;;11.63;7.55;;;15.10;99.90;;;;;;5025227;28;20059;-77
2023/05/13 06:43:15;;;;;;;11.00;7.72;;;15.20;99.90;;;;;;5023188;28;20041;-75
2023/05/13 06:45:41;;;;;;;12.52;6.95;;;15.30;99.90;;;;;;5006338;28;20138;-74
2023/05/13 06:48:07;;;;;;;11.70;7.13;;;15.50;99.90;;;;;;5027800;28;20044;-76
2023/05/13 06:50:33;;;;;;;14.43;7.65;;;15.60;99.90;;;;;;5013215;28;20076;-74
2023/05/13 06:52:59;;;;;;;9.48;6.85;;;15.70;99.90;;;;;;5025222;28;20312;-74
2023/05/13 06:55:25;;;;;;;10.80;6.40;;;15.80;99.90;;;;;;5022175;28;20111;-76
2023/05/13 06:57:53;;;;;;;12.20;6.43;;;16.00;99.90;;;;;;5025180;28;20049;-74
2023/05/13 07:00:19;;;;;;;10.45;6.80;;;16.20;99.90;;;;;;5031312;28;20387;-77
2023/05/13 07:02:45;;;;;;;10.77;6.78;;;16.40;99.90;;;;;;5023660;28;20051;-75
2023/05/13 07:05:11;;;;;;;9.88;7.13;;;16.50;99.90;;;;;;5019394;28;20409;-74
2023/05/13 07:07:37;;;;;;;9.65;6.10;;;16.60;99.90;;;;;;5021946;28;20629;-77
2023/05/13 07:10:03;;;;;;;9.88;6.18;;;16.80;99.90;;;;;;5030913;28;20056;-76
2023/05/13 07:12:29;;;;;;;7.45;6.00;;;16.90;99.90;;;;;;5029580;28;20029;-74
2023/05/13 07:14:54;;;;;;;8.18;5.95;;;17.10;99.90;;;;;;4996690;28;20110;-77
2023/05/13 07:17:20;;;;;;;10.38;5.43;;;17.20;99.90;;;;;;5023951;28;20044;-74
2023/05/13 07:19:46;;;;;;;8.55;5.45;;;17.30;99.90;;;;;;5023689;28;20168;-77
2023/05/13 07:22:12;;;;;;;8.07;4.82;;;17.40;99.90;;;;;;5016544;28;20111;-77
2023/05/13 07:24:37;;;;;;;7.45;4.95;;;17.50;99.90;;;;;;5009273;28;20079;-74
2023/05/13 07:27:03;;;;;;;8.93;5.43;;;17.70;99.90;;;;;;5027937;28;20462;-75
2023/05/13 07:29:31;;;;;;;8.88;5.03;;;17.80;99.90;;;;;;5022819;28;20472;-74
2023/05/13 07:31:56;;;;;;;7.70;5.50;;;17.90;99.90;;;;;;5025565;28;20642;-78
2023/05/13 07:34:22;;;;;;;5.95;4.68;;;18.10;99.90;;;;;;5007849;28;20053;-75
2023/05/13 07:36:51;;;;;;;7.07;5.50;;;18.20;99.90;;;;;;5021801;28;20051;-75
2023/05/13 07:39:17;;;;;;;7.15;5.25;;;18.30;99.90;;;;;;4991093;28;20057;-76
2023/05/13 07:41:43;;;;;;;6.65;4.70;;;18.50;99.90;;;;;;5022604;28;20063;-76
2023/05/13 07:44:11;;;;;;;8.68;4.72;;;18.70;99.90;;;;;;5011806;28;20063;-75
2023/05/13 07:46:37;;;;;;;10.98;5.40;;;18.80;99.90;;;;;;5012568;28;20120;-75
2023/05/13 07:49:05;;;;;;;8.50;4.97;;;18.90;99.90;;;;;;5024671;28;20048;-77
2023/05/13 07:51:31;;;;;;;9.63;4.85;;;19.00;99.90;;;;;;5043782;28;20076;-77
2023/05/13 07:53:57;;;;;;;8.50;4.93;;;19.20;99.90;;;;;;5015357;28;20579;-77
2023/05/13 07:56:23;;;;;;;8.18;5.13;;;19.40;99.90;;;;;;5010302;28;20045;-75
2023/05/13 07:58:49;;;;;;;6.72;4.40;;;19.60;99.90;;;;;;5013688;28;20528;-76
2023/05/13 08:01:15;;;;;;;7.40;4.72;;;19.80;99.90;;;;;;5021982;28;20423;-74
2023/05/13 08:03:41;;;;;;;6.85;4.55;;;19.80;99.90;;;;;;5019250;28;20056;-76
2023/05/13 08:06:08;;;;;;;8.80;4.60;;;19.90;99.90;;;;;;5046925;28;20053;-77
2023/05/13 08:08:33;;;;;;;7.47;5.03;;;20.10;99.90;;;;;;5013617;28;20069;-74
2023/05/13 08:10:59;;;;;;;9.38;4.50;;;20.20;99.90;;;;;;5022167;28;20128;-77
2023/05/13 08:13:25;;;;;;;6.88;4.20;;;20.40;99.90;;;;;;5011079;28;20050;-75
2023/05/13 08:15:51;;;;;;;6.90;4.43;;;20.30;99.90;;;;;;5017065;28;20571;-78
2023/05/13 08:18:20;;;;;;;8.10;4.60;;;20.60;99.90;;;;;;5027180;28;20492;-75
2023/05/13 08:20:45;;;;;;;6.53;4.28;;;20.70;99.90;;;;;;5019223;28;20041;-76
2023/05/13 08:23:11;;;;;;;7.20;4.75;;;20.90;99.90;;;;;;5023828;28;20107;-73
2023/05/13 08:25:37;;;;;;;8.98;4.70;;;21.00;99.90;;;;;;5017594;28;20748;-76
2023/05/13 08:28:02;;;;;;;6.93;4.88;;;21.10;99.90;;;;;;5027093;28;20052;-75
2023/05/13 08:30:28;;;;;;;8.38;4.88;;;21.30;99.90;;;;;;5029122;28;20048;-75
2023/05/13 08:32:54;;;;;;;7.53;4.93;;;21.40;99.90;;;;;;5027857;28;20042;-74
2023/05/13 08:35:20;;;;;;;7.28;4.75;;;21.60;99.90;;;;;;5017443;28;20511;-74
2023/05/13 08:37:47;;;;;;;7.63;4.97;;;21.70;99.90;;;;;;5028374;28;20504;-76
2023/05/13 08:40:14;;;;;;;9.88;4.82;;;21.80;99.90;;;;;;5028609;28;20037;-76
2023/05/13 08:42:41;;;;;;;7.35;4.18;;;21.80;99.90;;;;;;5010148;28;20052;-74
2023/05/13 08:45:08;;;;;;;6.93;4.80;;;22.00;99.90;;;;;;5015482;28;20440;-76
2023/05/13 08:48:03;;;;;;;8.43;4.78;;;22.20;99.90;;;;;;5026437;28;20664;-77
2023/05/13 08:50:29;;;;;;;6.40;4.25;;;22.30;99.90;;;;;;5019477;28;20053;-74
2023/05/13 08:52:57;;;;;;;7.95;5.00;;;22.40;99.90;;;;;;5016271;28;20340;-77
2023/05/13 08:55:24;;;;;;;8.73;4.57;;;22.50;99.90;;;;;;5015304;28;20045;-74
2023/05/13 08:57:50;;;;;;;7.88;4.55;;;22.70;99.90;;;;;;5016569;28;20432;-75
2023/05/13 09:00:19;;;;;;;9.85;4.88;;;22.90;99.90;;;;;;5028246;28;20057;-77
2023/05/13 09:02:46;;;;;;;8.00;4.75;;;23.00;99.90;;;;;;5027623;28;20048;-75
2023/05/13 09:05:11;;;;;;;7.50;4.75;;;23.00;99.90;;;;;;5030858;28;20057;-74
2023/05/13 09:07:38;;;;;;;5.88;4.15;;;23.00;99.90;;;;;;5030830;28;20134;-75
2023/05/13 09:10:07;;;;;;;6.35;4.65;;;23.10;99.90;;;;;;5026659;28;20067;-73
2023/05/13 09:12:50;;;;;;;7.05;4.63;;;23.20;99.90;;;;;;5030286;28;20128;-75
2023/05/13 09:15:22;;;;;;;7.07;5.00;;;23.20;98.50;;;;;;5030592;28;20060;-75
2023/05/13 09:17:51;;;;;;;6.70;4.82;;;23.40;99.40;;;;;;5022789;28;20076;-74
2023/05/13 09:20:19;;;;;;;7.93;4.93;;;23.50;99.20;;;;;;5035863;28;20072;-75
2023/05/13 09:23:00;;;;;;;8.35;4.57;;;23.60;98.90;;;;;;5031929;28;20053;-75
2023/05/13 09:25:26;;;;;;;7.82;5.20;;;23.70;98.70;;;;;;5028655;28;20400;-74
2023/05/13 09:27:57;;;;;;;9.38;4.68;;;23.90;98.60;;;;;;5029474;28;20772;-74
2023/05/13 09:30:37;;;;;;;6.78;4.78;;;24.00;98.30;;;;;;5028523;28;20049;-74
2023/05/13 09:33:09;;;;;;;6.55;5.00;;;24.20;98.10;;;;;;5029608;28;20518;-75
2023/05/13 09:35:53;;;;;;;10.50;5.25;;;24.40;97.80;;;;;;5034263;28;20234;-75
2023/05/13 09:38:31;;;;;;;8.60;5.60;;;24.60;97.40;;;;;;5035488;28;20041;-75
2023/05/13 09:41:01;;;;;;;8.23;4.80;;;24.80;97.50;;;;;;5020767;28;20053;-76
2023/05/13 09:43:31;;;;;;;9.95;4.90;;;24.90;97.10;;;;;;5038366;28;20045;-76
2023/05/13 09:46:02;;;;;;;6.93;4.80;;;24.90;96.30;;;;;;5026448;28;20044;-77
2023/05/13 09:48:30;;;;;;;10.25;5.05;;;25.00;96.30;;;;;;5028557;28;20044;-75
2023/05/13 09:50:56;;;;;;;8.88;4.80;;;25.10;96.20;;;;;;5025566;28;20057;-74
2023/05/13 09:53:23;;;;;;;7.35;4.68;;;25.10;95.70;;;;;;5029576;28;20132;-75
2023/05/13 09:55:55;;;;;;;6.47;4.60;;;25.20;95.30;;;;;;5007670;28;20590;-77
2023/05/13 09:58:23;;;;;;;6.75;4.57;;;25.40;94.30;;;;;;5028190;28;20049;-76
2023/05/13 10:00:50;;;;;;;7.00;4.15;;;25.50;94.60;;;;;;5029429;28;20075;-75
2023/05/13 10:03:17;;;;;;;9.55;5.30;;;25.50;94.30;;;;;;5025246;28;20049;-74
2023/05/13 10:05:44;;;;;;;5.90;4.80;;;25.50;94.10;;;;;;5031311;28;20142;-78
2023/05/13 10:08:11;;;;;;;9.52;5.05;;;25.50;94.20;;;;;;5024827;28;20049;-73
2023/05/13 10:10:38;;;;;;;6.68;4.43;;;25.50;94.00;;;;;;5020095;28;20052;-77
2023/05/13 10:13:23;;;;;;;5.97;4.32;;;25.60;93.70;;;;;;5028830;28;20064;-76
2023/05/13 10:15:52;;;;;;;6.00;4.28;;;25.70;92.20;;;;;;5041672;28;20076;-79
2023/05/13 10:18:19;;;;;;;9.38;5.15;;;25.90;93.10;;;;;;5032036;28;20079;-73
2023/05/13 10:20:46;;;;;;;6.75;4.55;;;26.00;92.90;;;;;;5018792;28;20041;-78
2023/05/13 10:23:12;;;;;;;7.88;5.18;;;26.10;92.80;;;;;;5027169;28;20045;-74
2023/05/13 10:25:38;;;;;;;8.35;4.82;;;26.10;92.40;;;;;;5019676;28;20072;-75
2023/05/13 10:28:08;;;;;;;9.25;4.72;;;26.10;92.10;;;;;;5029210;28;20099;-78
2023/05/13 10:30:37;;;;;;;8.90;5.07;;;26.10;92.10;;;;;;5033299;28;20104;-77
2023/05/13 10:33:03;;;;;;;8.60;4.97;;;26.20;92.10;;;;;;5028334;28;20051;-77
2023/05/13 10:35:35;;;;;;;8.77;5.57;;;26.20;91.80;;;;;;5029268;28;20403;-75
2023/05/13 10:38:14;;;;;;;9.23;6.13;;;26.20;91.30;;;;;;5026746;28;20041;-74
2023/05/13 10:40:59;;;;;;;5.88;5.15;;;26.10;90.70;;;;;;5051429;28;20618;-78
2023/05/13 10:43:29;;;;;;;11.32;5.53;;;26.00;90.70;;;;;;5029554;28;20077;-74
2023/05/13 10:46:18;;;;;;;12.27;5.30;;;25.90;91.00;;;;;;5033445;28;20049;-74
2023/05/13 10:48:49;;;;;;;8.32;5.20;;;25.80;90.50;;;;;;5032757;28;20955;-75
2023/05/13 10:51:17;;;;;;;8.40;5.38;;;25.80;91.20;;;;;;5029343;28;20045;-75
2023/05/13 10:53:48;;;;;;;9.13;5.63;;;25.80;91.30;;;;;;5016316;28;20614;-75
2023/05/13 10:56:15;;;;;;;10.27;6.38;;;25.90;91.00;;;;;;5028920;28;20060;-75
2023/05/13 10:58:41;;;;;;;6.93;5.25;;;25.90;91.00;;;;;;5026227;28;20852;-75
2023/05/13 11:01:18;;;;;;;8.30;5.57;;;26.00;90.90;;;;;;5027989;28;20311;-76
2023/05/13 11:03:55;;;;;;;8.73;5.57;;;26.10;90.00;;;;;;5032065;28;20115;-72
2023/05/13 11:06:28;;;;;;;8.80;5.00;;;26.10;90.10;;;;;;5038445;28;20476;-72
2023/05/13 11:08:54;;;;;;;8.25;5.60;;;26.00;90.40;;;;;;5036237;28;20373;-75
2023/05/13 11:11:25;;;;;;;10.82;5.28;;;26.10;90.50;;;;;;5033234;28;20055;-74
2023/05/13 11:14:04;;;;;;;7.85;5.75;;;26.10;90.40;;;;;;5026752;28;20045;-74
2023/05/13 11:16:30;;;;;;;8.15;5.28;;;26.20;89.80;;;;;;5032484;28;20114;-76
2023/05/13 11:18:57;;;;;;;8.60;5.13;;;26.30;90.10;;;;;;5039593;28;21637;-74
2023/05/13 11:21:31;;;;;;;6.13;4.55;;;26.40;89.20;;;;;;5047961;28;20048;-74
2023/05/13 11:24:02;;;;;;;8.27;5.60;;;26.50;88.10;;;;;;5016076;28;20178;-75
2023/05/13 11:26:55;;;;;;;6.43;4.95;;;26.50;88.90;;;;;;5010809;28;20046;-74
2023/05/13 11:29:37;;;;;;;6.78;4.18;;;26.60;87.10;;;;;;5011905;28;20430;-73
2023/05/13 11:32:04;;;;;;;9.65;4.40;;;26.60;87.10;;;;;;5006782;28;20049;-73
2023/05/13 11:34:31;;;;;;;10.18;4.60;;;26.70;87.30;;;;;;5028338;28;20055;-74
2023/05/13 11:37:07;;;;;;;8.73;4.70;;;26.70;86.60;;;;;;5049733;28;20080;-74
2023/05/13 11:39:33;;;;;;;8.60;4.82;;;26.80;85.50;;;;;;5010115;28;20503;-75
2023/05/13 11:42:01;;;;;;;13.82;4.60;;;26.70;85.90;;;;;;5030492;28;20054;-75
2023/05/13 11:44:27;;;;;;;6.65;4.82;;;26.70;85.40;;;;;;5031387;28;20351;-75
2023/05/13 11:46:54;;;;;;;7.25;5.05;;;26.80;85.40;;;;;;5027141;28;20041;-73
2023/05/13 11:49:40;;;;;;;10.57;5.55;;;26.60;84.50;;;;;;5029451;28;20110;-76
2023/05/13 11:52:07;;;;;;;;;;;26.60;83.00;;;;;;5028502;28;20040;-75
2023/05/13 11:54:46;;;;;;;7.85;5.13;;;26.60;83.50;;;;;;5028019;28;20936;-79
2023/05/13 11:57:26;;;;;;;8.65;5.20;;;26.70;84.50;;;;;;5029994;28;20056;-78
2023/05/13 11:59:57;;;;;;;8.20;5.30;;;26.80;85.30;;;;;;5014651;28;20053;-74
2023/05/13 12:02:28;;;;;;;7.30;5.40;;;26.80;85.20;;;;;;5029581;28;20480;-76
2023/05/13 12:04:53;;;;;;;7.63;5.03;;;26.80;84.70;;;;;;5035112;28;20476;-77
2023/05/13 12:07:24;;;;;;;10.38;5.18;;;26.80;84.80;;;;;;5028168;28;20051;-76
2023/05/13 12:09:51;;;;;;;7.28;4.93;;;26.90;84.50;;;;;;5026049;28;20048;-77
2023/05/13 12:12:18;;;;;;;7.57;4.90;;;27.00;84.70;;;;;;5031702;28;20586;-74
2023/05/13 12:14:45;;;;;;;7.40;4.82;;;27.10;84.50;;;;;;5025296;28;20092;-76
2023/05/13 12:17:15;;;;;;;9.65;5.75;;;27.30;84.10;;;;;;5028518;28;20054;-75
2023/05/13 12:20:03;;;;;;;9.07;5.43;;;27.40;82.70;;;;;;5026051;28;20057;-75
2023/05/13 12:22:28;;;;;;;9.98;4.18;;;27.50;81.50;;;;;;5027186;28;20449;-76
2023/05/13 12:24:54;;;;;;;12.13;4.95;;;27.70;82.30;;;;;;5026253;28;20137;-76
2023/05/13 12:27:20;;;;;;;11.82;5.00;;;27.90;81.30;;;;;;5024932;28;20049;-75
2023/05/13 12:29:46;;;;;;;9.30;4.63;;;27.80;80.40;;;;;;4996910;28;20484;-77
2023/05/13 12:32:15;;;;;;;8.00;4.63;;;27.90;80.20;;;;;;5011306;28;20133;-75
2023/05/13 12:34:50;;;;;;;8.10;4.70;;;27.90;79.80;;;;;;5016769;28;20388;-74
2023/05/13 12:37:16;;;;;;;8.23;4.78;;;28.00;79.20;;;;;;5033390;28;20045;-75
2023/05/13 12:39:43;;;;;;;7.85;4.35;;;28.00;80.00;;;;;;5028423;28;20046;-77
2023/05/13 12:42:16;;;;;;;11.40;5.45;;;28.10;79.70;;;;;;5020706;28;20292;-73